sensor_id;sensor_type;location;lat;lon;timestamp;P1;durP1;ratioP1;P2;durP2;ratioP2
13683;SDS011;6914;53.552;9.908;2022-12-20T00:00:05;11.93;;;9.37;;
13683;SDS011;6914;53.552;9.908;2022-12-20T00:02:33;14.30;;;10.20;;
13683;SDS011;6914;53.552;9.908;2022-12-20T00:05:00;20.70;;;11.43;;
13683;SDS011;6914;53.552;9.908;2022-12-20T00:07:27;15.73;;;11.40;;
13683;SDS011;6914;53.552;9.908;2022-12-20T00:09:54;21.90;;;10.73;;
13683;SDS011;6914;53.552;9.908;2022-12-20T00:12:20;14.97;;;10.20;;
13683;SDS011;6914;53.552;9.908;2022-12-20T00:14:49;14.03;;;10.00;;
13683;SDS011;6914;53.552;9.908;2022-12-20T00:17:16;15.40;;;10.83;;
13683;SDS011;6914;53.552;9.908;2022-12-20T00:19:43;16.43;;;11.73;;
13683;SDS011;6914;53.552;9.908;2022-12-20T00:22:10;16.80;;;10.97;;
13683;SDS011;6914;53.552;9.908;2022-12-20T00:24:36;16.10;;;10.53;;
13683;SDS011;6914;53.552;9.908;2022-12-20T00:27:03;13.37;;;9.90;;
13683;SDS011;6914;53.552;9.908;2022-12-20T00:29:31;14.07;;;10.57;;
13683;SDS011;6914;53.552;9.908;2022-12-20T00:31:59;14.87;;;10.90;;
13683;SDS011;6914;53.552;9.908;2022-12-20T00:34:26;11.33;;;10.00;;
13683;SDS011;6914;53.552;9.908;2022-12-20T00:36:52;13.60;;;10.90;;
13683;SDS011;6914;53.552;9.908;2022-12-20T00:39:19;15.50;;;11.50;;
13683;SDS011;6914;53.552;9.908;2022-12-20T00:41:46;18.73;;;10.60;;
13683;SDS011;6914;53.552;9.908;2022-12-20T00:44:14;15.80;;;11.40;;
13683;SDS011;6914;53.552;9.908;2022-12-20T00:46:41;13.67;;;10.47;;
13683;SDS011;6914;53.552;9.908;2022-12-20T00:49:09;13.07;;;10.50;;
13683;SDS011;6914;53.552;9.908;2022-12-20T00:51:36;13.60;;;10.17;;
13683;SDS011;6914;53.552;9.908;2022-12-20T00:54:03;16.20;;;11.30;;
13683;SDS011;6914;53.552;9.908;2022-12-20T00:56:30;17.50;;;10.53;;
13683;SDS011;6914;53.552;9.908;2022-12-20T00:58:57;16.20;;;11.80;;
13683;SDS011;6914;53.552;9.908;2022-12-20T01:01:26;20.33;;;11.73;;
13683;SDS011;6914;53.552;9.908;2022-12-20T01:03:55;12.23;;;10.00;;
13683;SDS011;6914;53.552;9.908;2022-12-20T01:06:23;17.07;;;10.00;;
13683;SDS011;6914;53.552;9.908;2022-12-20T01:08:50;18.00;;;10.07;;
13683;SDS011;6914;53.552;9.908;2022-12-20T01:11:19;11.90;;;9.53;;
13683;SDS011;6914;53.552;9.908;2022-12-20T01:13:47;16.37;;;10.27;;
13683;SDS011;6914;53.552;9.908;2022-12-20T01:16:17;17.73;;;10.83;;
13683;SDS011;6914;53.552;9.908;2022-12-20T01:18:46;16.87;;;11.10;;
13683;SDS011;6914;53.552;9.908;2022-12-20T01:21:15;19.57;;;10.13;;
13683;SDS011;6914;53.552;9.908;2022-12-20T01:23:45;15.90;;;11.07;;
13683;SDS011;6914;53.552;9.908;2022-12-20T01:26:13;13.77;;;11.17;;
13683;SDS011;6914;53.552;9.908;2022-12-20T01:28:43;12.30;;;10.50;;
13683;SDS011;6914;53.552;9.908;2022-12-20T01:31:11;15.60;;;11.70;;
13683;SDS011;6914;53.552;9.908;2022-12-20T01:33:40;11.57;;;10.37;;
13683;SDS011;6914;53.552;9.908;2022-12-20T01:36:10;10.87;;;9.50;;
13683;SDS011;6914;53.552;9.908;2022-12-20T01:38:38;14.57;;;11.00;;
13683;SDS011;6914;53.552;9.908;2022-12-20T01:41:07;15.20;;;10.20;;
13683;SDS011;6914;53.552;9.908;2022-12-20T01:43:46;13.70;;;10.07;;
13683;SDS011;6914;53.552;9.908;2022-12-20T01:46:15;13.20;;;9.57;;
13683;SDS011;6914;53.552;9.908;2022-12-20T01:48:45;14.40;;;10.60;;
13683;SDS011;6914;53.552;9.908;2022-12-20T01:51:16;11.03;;;9.77;;
13683;SDS011;6914;53.552;9.908;2022-12-20T01:53:44;15.10;;;9.10;;
13683;SDS011;6914;53.552;9.908;2022-12-20T01:56:14;10.83;;;8.63;;
13683;SDS011;6914;53.552;9.908;2022-12-20T01:58:41;10.47;;;7.93;;
13683;SDS011;6914;53.552;9.908;2022-12-20T02:01:11;13.10;;;10.10;;
13683;SDS011;6914;53.552;9.908;2022-12-20T02:03:38;10.73;;;9.63;;
13683;SDS011;6914;53.552;9.908;2022-12-20T02:06:14;13.73;;;9.23;;
13683;SDS011;6914;53.552;9.908;2022-12-20T02:08:42;13.23;;;9.73;;
13683;SDS011;6914;53.552;9.908;2022-12-20T02:11:16;9.93;;;8.87;;
13683;SDS011;6914;53.552;9.908;2022-12-20T02:14:18;12.30;;;9.57;;
13683;SDS011;6914;53.552;9.908;2022-12-20T02:16:56;13.63;;;9.33;;
13683;SDS011;6914;53.552;9.908;2022-12-20T02:19:49;18.13;;;10.10;;
13683;SDS011;6914;53.552;9.908;2022-12-20T02:22:45;19.80;;;9.07;;
13683;SDS011;6914;53.552;9.908;2022-12-20T02:25:34;12.33;;;9.80;;
13683;SDS011;6914;53.552;9.908;2022-12-20T02:28:13;13.63;;;8.80;;
13683;SDS011;6914;53.552;9.908;2022-12-20T02:30:57;11.33;;;9.13;;
13683;SDS011;6914;53.552;9.908;2022-12-20T02:33:27;12.03;;;8.23;;
13683;SDS011;6914;53.552;9.908;2022-12-20T02:35:54;10.00;;;9.00;;
13683;SDS011;6914;53.552;9.908;2022-12-20T02:38:25;17.20;;;9.20;;
13683;SDS011;6914;53.552;9.908;2022-12-20T02:40:55;14.40;;;9.63;;
13683;SDS011;6914;53.552;9.908;2022-12-20T02:43:24;13.13;;;9.30;;
13683;SDS011;6914;53.552;9.908;2022-12-20T02:46:12;10.00;;;8.50;;
13683;SDS011;6914;53.552;9.908;2022-12-20T02:48:41;11.20;;;8.80;;
13683;SDS011;6914;53.552;9.908;2022-12-20T02:51:08;11.03;;;7.67;;
13683;SDS011;6914;53.552;9.908;2022-12-20T02:53:36;17.30;;;9.07;;
13683;SDS011;6914;53.552;9.908;2022-12-20T02:56:06;11.70;;;9.23;;
13683;SDS011;6914;53.552;9.908;2022-12-20T02:58:41;13.07;;;8.50;;
13683;SDS011;6914;53.552;9.908;2022-12-20T03:01:15;10.83;;;8.53;;
13683;SDS011;6914;53.552;9.908;2022-12-20T03:03:46;13.33;;;8.10;;
13683;SDS011;6914;53.552;9.908;2022-12-20T03:06:14;9.03;;;8.10;;
13683;SDS011;6914;53.552;9.908;2022-12-20T03:08:42;8.30;;;7.53;;
13683;SDS011;6914;53.552;9.908;2022-12-20T03:11:09;9.63;;;8.50;;
13683;SDS011;6914;53.552;9.908;2022-12-20T03:13:36;10.20;;;8.37;;
13683;SDS011;6914;53.552;9.908;2022-12-20T03:16:03;8.43;;;7.63;;
13683;SDS011;6914;53.552;9.908;2022-12-20T03:18:31;14.70;;;8.57;;
13683;SDS011;6914;53.552;9.908;2022-12-20T03:20:58;9.83;;;8.40;;
13683;SDS011;6914;53.552;9.908;2022-12-20T03:23:25;12.13;;;8.73;;
13683;SDS011;6914;53.552;9.908;2022-12-20T03:25:52;10.07;;;9.00;;
13683;SDS011;6914;53.552;9.908;2022-12-20T03:28:20;14.63;;;8.70;;
13683;SDS011;6914;53.552;9.908;2022-12-20T03:30:47;9.70;;;7.80;;
13683;SDS011;6914;53.552;9.908;2022-12-20T03:33:14;9.77;;;8.47;;
13683;SDS011;6914;53.552;9.908;2022-12-20T03:35:42;10.63;;;8.30;;
13683;SDS011;6914;53.552;9.908;2022-12-20T03:38:09;13.90;;;8.77;;
13683;SDS011;6914;53.552;9.908;2022-12-20T03:40:36;10.33;;;8.10;;
13683;SDS011;6914;53.552;9.908;2022-12-20T03:43:03;9.63;;;8.63;;
13683;SDS011;6914;53.552;9.908;2022-12-20T03:45:30;7.97;;;7.17;;
13683;SDS011;6914;53.552;9.908;2022-12-20T03:47:57;12.33;;;8.10;;
13683;SDS011;6914;53.552;9.908;2022-12-20T03:50:24;10.10;;;7.97;;
13683;SDS011;6914;53.552;9.908;2022-12-20T03:52:52;8.43;;;7.63;;
13683;SDS011;6914;53.552;9.908;2022-12-20T03:55:19;13.43;;;8.30;;
13683;SDS011;6914;53.552;9.908;2022-12-20T03:57:46;8.17;;;7.40;;
13683;SDS011;6914;53.552;9.908;2022-12-20T04:00:13;11.97;;;7.60;;
13683;SDS011;6914;53.552;9.908;2022-12-20T04:02:41;8.63;;;7.73;;
13683;SDS011;6914;53.552;9.908;2022-12-20T04:05:08;8.90;;;7.40;;
13683;SDS011;6914;53.552;9.908;2022-12-20T04:07:35;10.77;;;7.93;;
13683;SDS011;6914;53.552;9.908;2022-12-20T04:10:04;10.90;;;8.47;;
13683;SDS011;6914;53.552;9.908;2022-12-20T04:12:31;9.30;;;7.60;;
13683;SDS011;6914;53.552;9.908;2022-12-20T04:14:58;15.70;;;7.17;;
13683;SDS011;6914;53.552;9.908;2022-12-20T04:17:25;8.57;;;7.63;;
13683;SDS011;6914;53.552;9.908;2022-12-20T04:19:52;13.03;;;8.97;;
13683;SDS011;6914;53.552;9.908;2022-12-20T04:22:19;11.33;;;7.90;;
13683;SDS011;6914;53.552;9.908;2022-12-20T04:24:46;7.00;;;6.50;;
13683;SDS011;6914;53.552;9.908;2022-12-20T04:27:15;11.07;;;7.40;;
13683;SDS011;6914;53.552;9.908;2022-12-20T04:29:42;8.60;;;7.50;;
13683;SDS011;6914;53.552;9.908;2022-12-20T04:32:09;12.57;;;7.73;;
13683;SDS011;6914;53.552;9.908;2022-12-20T04:34:35;11.00;;;6.77;;
13683;SDS011;6914;53.552;9.908;2022-12-20T04:37:02;7.73;;;6.97;;
13683;SDS011;6914;53.552;9.908;2022-12-20T04:42:19;7.40;;;6.77;;
13683;SDS011;6914;53.552;9.908;2022-12-20T04:44:46;9.40;;;6.90;;
13683;SDS011;6914;53.552;9.908;2022-12-20T04:47:13;8.30;;;7.50;;
13683;SDS011;6914;53.552;9.908;2022-12-20T04:52:13;10.53;;;7.20;;
13683;SDS011;6914;53.552;9.908;2022-12-20T04:54:57;12.70;;;6.97;;
13683;SDS011;6914;53.552;9.908;2022-12-20T04:57:25;10.10;;;6.83;;
13683;SDS011;6914;53.552;9.908;2022-12-20T04:59:52;13.50;;;7.50;;
13683;SDS011;6914;53.552;9.908;2022-12-20T05:02:19;9.07;;;7.90;;
13683;SDS011;6914;53.552;9.908;2022-12-20T05:04:46;8.27;;;7.37;;
13683;SDS011;6914;53.552;9.908;2022-12-20T05:07:13;9.10;;;6.53;;
13683;SDS011;6914;53.552;9.908;2022-12-20T05:09:46;8.43;;;7.50;;
13683;SDS011;6914;53.552;9.908;2022-12-20T05:12:13;10.33;;;8.23;;
13683;SDS011;6914;53.552;9.908;2022-12-20T05:14:41;9.17;;;8.27;;
13683;SDS011;6914;53.552;9.908;2022-12-20T05:17:08;10.50;;;7.60;;
13683;SDS011;6914;53.552;9.908;2022-12-20T05:19:35;15.73;;;7.20;;
13683;SDS011;6914;53.552;9.908;2022-12-20T05:22:01;12.03;;;8.70;;
13683;SDS011;6914;53.552;9.908;2022-12-20T05:24:46;10.07;;;7.83;;
13683;SDS011;6914;53.552;9.908;2022-12-20T05:27:26;11.70;;;9.00;;
13683;SDS011;6914;53.552;9.908;2022-12-20T05:29:55;8.60;;;7.80;;
13683;SDS011;6914;53.552;9.908;2022-12-20T05:32:22;10.13;;;8.10;;
13683;SDS011;6914;53.552;9.908;2022-12-20T05:34:49;11.80;;;9.50;;
13683;SDS011;6914;53.552;9.908;2022-12-20T05:37:16;9.03;;;8.10;;
13683;SDS011;6914;53.552;9.908;2022-12-20T05:39:43;9.43;;;7.50;;
13683;SDS011;6914;53.552;9.908;2022-12-20T05:42:10;10.47;;;8.60;;
13683;SDS011;6914;53.552;9.908;2022-12-20T05:44:37;9.33;;;7.27;;
13683;SDS011;6914;53.552;9.908;2022-12-20T05:47:05;13.43;;;7.17;;
13683;SDS011;6914;53.552;9.908;2022-12-20T05:49:32;10.37;;;8.00;;
13683;SDS011;6914;53.552;9.908;2022-12-20T05:51:59;8.70;;;6.90;;
13683;SDS011;6914;53.552;9.908;2022-12-20T05:54:26;10.73;;;8.10;;
13683;SDS011;6914;53.552;9.908;2022-12-20T05:56:54;11.80;;;7.50;;
13683;SDS011;6914;53.552;9.908;2022-12-20T05:59:22;13.30;;;8.10;;
13683;SDS011;6914;53.552;9.908;2022-12-20T06:01:49;9.20;;;8.30;;
13683;SDS011;6914;53.552;9.908;2022-12-20T06:04:17;8.57;;;7.67;;
13683;SDS011;6914;53.552;9.908;2022-12-20T06:06:44;12.03;;;8.80;;
13683;SDS011;6914;53.552;9.908;2022-12-20T06:09:11;9.43;;;8.50;;
13683;SDS011;6914;53.552;9.908;2022-12-20T06:11:38;9.80;;;7.80;;
13683;SDS011;6914;53.552;9.908;2022-12-20T06:14:05;14.37;;;7.33;;
13683;SDS011;6914;53.552;9.908;2022-12-20T06:16:31;11.43;;;8.43;;
13683;SDS011;6914;53.552;9.908;2022-12-20T06:18:59;8.80;;;7.70;;
13683;SDS011;6914;53.552;9.908;2022-12-20T06:21:27;13.90;;;9.47;;
13683;SDS011;6914;53.552;9.908;2022-12-20T06:23:56;11.53;;;7.93;;
13683;SDS011;6914;53.552;9.908;2022-12-20T06:26:22;12.93;;;8.73;;
13683;SDS011;6914;53.552;9.908;2022-12-20T06:28:49;13.80;;;8.70;;
13683;SDS011;6914;53.552;9.908;2022-12-20T06:31:18;10.10;;;9.10;;
13683;SDS011;6914;53.552;9.908;2022-12-20T06:33:45;11.40;;;10.20;;
13683;SDS011;6914;53.552;9.908;2022-12-20T06:36:12;12.23;;;9.47;;
13683;SDS011;6914;53.552;9.908;2022-12-20T06:38:40;12.53;;;8.20;;
13683;SDS011;6914;53.552;9.908;2022-12-20T06:41:07;15.00;;;8.97;;
13683;SDS011;6914;53.552;9.908;2022-12-20T06:43:34;9.60;;;8.43;;
13683;SDS011;6914;53.552;9.908;2022-12-20T06:46:00;7.63;;;7.10;;
13683;SDS011;6914;53.552;9.908;2022-12-20T06:48:27;9.73;;;8.17;;
13683;SDS011;6914;53.552;9.908;2022-12-20T06:50:56;9.27;;;8.20;;
13683;SDS011;6914;53.552;9.908;2022-12-20T06:53:23;8.33;;;7.53;;
13683;SDS011;6914;53.552;9.908;2022-12-20T06:55:51;10.30;;;9.10;;
13683;SDS011;6914;53.552;9.908;2022-12-20T06:58:19;10.63;;;8.07;;
13683;SDS011;6914;53.552;9.908;2022-12-20T07:00:46;11.20;;;8.57;;
13683;SDS011;6914;53.552;9.908;2022-12-20T07:03:13;8.50;;;7.63;;
13683;SDS011;6914;53.552;9.908;2022-12-20T07:05:40;12.43;;;7.33;;
13683;SDS011;6914;53.552;9.908;2022-12-20T07:08:07;9.83;;;8.60;;
13683;SDS011;6914;53.552;9.908;2022-12-20T07:10:35;9.10;;;8.13;;
13683;SDS011;6914;53.552;9.908;2022-12-20T07:13:04;12.60;;;9.07;;
13683;SDS011;6914;53.552;9.908;2022-12-20T07:15:30;8.10;;;7.30;;
13683;SDS011;6914;53.552;9.908;2022-12-20T07:18:03;10.93;;;8.00;;
13683;SDS011;6914;53.552;9.908;2022-12-20T07:20:31;12.60;;;8.67;;
13683;SDS011;6914;53.552;9.908;2022-12-20T07:22:58;14.77;;;8.67;;
13683;SDS011;6914;53.552;9.908;2022-12-20T07:25:24;10.90;;;8.37;;
13683;SDS011;6914;53.552;9.908;2022-12-20T07:27:51;12.30;;;10.23;;
13683;SDS011;6914;53.552;9.908;2022-12-20T07:30:20;9.30;;;8.40;;
13683;SDS011;6914;53.552;9.908;2022-12-20T07:32:47;15.20;;;9.07;;
13683;SDS011;6914;53.552;9.908;2022-12-20T07:35:14;12.33;;;9.80;;
13683;SDS011;6914;53.552;9.908;2022-12-20T07:37:42;15.90;;;9.93;;
13683;SDS011;6914;53.552;9.908;2022-12-20T07:40:09;11.27;;;9.70;;
13683;SDS011;6914;53.552;9.908;2022-12-20T07:42:38;9.40;;;8.03;;
13683;SDS011;6914;53.552;9.908;2022-12-20T07:45:06;11.33;;;9.50;;
13683;SDS011;6914;53.552;9.908;2022-12-20T07:47:35;10.97;;;9.77;;
13683;SDS011;6914;53.552;9.908;2022-12-20T07:50:02;14.27;;;9.67;;
13683;SDS011;6914;53.552;9.908;2022-12-20T07:52:29;21.03;;;10.20;;
13683;SDS011;6914;53.552;9.908;2022-12-20T07:55:00;13.60;;;9.27;;
13683;SDS011;6914;53.552;9.908;2022-12-20T07:57:31;9.37;;;8.17;;
13683;SDS011;6914;53.552;9.908;2022-12-20T08:00:02;13.57;;;9.77;;
13683;SDS011;6914;53.552;9.908;2022-12-20T08:02:30;9.27;;;8.50;;
13683;SDS011;6914;53.552;9.908;2022-12-20T08:05:02;13.53;;;9.33;;
13683;SDS011;6914;53.552;9.908;2022-12-20T08:07:31;11.00;;;9.20;;
13683;SDS011;6914;53.552;9.908;2022-12-20T08:09:58;10.90;;;8.57;;
13683;SDS011;6914;53.552;9.908;2022-12-20T08:12:26;10.40;;;8.40;;
13683;SDS011;6914;53.552;9.908;2022-12-20T08:14:55;12.40;;;9.10;;
13683;SDS011;6914;53.552;9.908;2022-12-20T08:17:23;8.47;;;7.73;;
13683;SDS011;6914;53.552;9.908;2022-12-20T08:19:50;11.07;;;8.50;;
13683;SDS011;6914;53.552;9.908;2022-12-20T08:22:19;9.00;;;7.20;;
13683;SDS011;6914;53.552;9.908;2022-12-20T08:24:47;9.53;;;8.60;;
13683;SDS011;6914;53.552;9.908;2022-12-20T08:27:14;18.10;;;8.30;;
13683;SDS011;6914;53.552;9.908;2022-12-20T08:29:40;9.40;;;8.10;;
13683;SDS011;6914;53.552;9.908;2022-12-20T08:32:07;14.33;;;7.60;;
13683;SDS011;6914;53.552;9.908;2022-12-20T08:34:36;8.20;;;7.40;;
13683;SDS011;6914;53.552;9.908;2022-12-20T08:37:03;7.97;;;7.27;;
13683;SDS011;6914;53.552;9.908;2022-12-20T08:39:31;8.50;;;7.33;;
13683;SDS011;6914;53.552;9.908;2022-12-20T08:41:58;11.53;;;8.33;;
13683;SDS011;6914;53.552;9.908;2022-12-20T08:44:25;13.93;;;8.47;;
13683;SDS011;6914;53.552;9.908;2022-12-20T08:46:52;12.50;;;7.63;;
13683;SDS011;6914;53.552;9.908;2022-12-20T08:49:19;8.27;;;7.47;;
13683;SDS011;6914;53.552;9.908;2022-12-20T08:51:46;11.30;;;8.00;;
13683;SDS011;6914;53.552;9.908;2022-12-20T08:54:13;8.37;;;7.60;;
13683;SDS011;6914;53.552;9.908;2022-12-20T08:56:42;10.73;;;8.20;;
13683;SDS011;6914;53.552;9.908;2022-12-20T08:59:09;9.43;;;7.83;;
13683;SDS011;6914;53.552;9.908;2022-12-20T09:01:36;10.53;;;7.90;;
13683;SDS011;6914;53.552;9.908;2022-12-20T09:04:03;10.30;;;8.10;;
13683;SDS011;6914;53.552;9.908;2022-12-20T09:06:33;15.47;;;8.80;;
13683;SDS011;6914;53.552;9.908;2022-12-20T09:09:00;8.93;;;7.43;;
13683;SDS011;6914;53.552;9.908;2022-12-20T09:11:27;11.23;;;7.90;;
13683;SDS011;6914;53.552;9.908;2022-12-20T09:13:57;10.03;;;8.03;;
13683;SDS011;6914;53.552;9.908;2022-12-20T09:16:25;8.73;;;7.70;;
13683;SDS011;6914;53.552;9.908;2022-12-20T09:18:54;17.90;;;8.83;;
13683;SDS011;6914;53.552;9.908;2022-12-20T09:21:24;14.17;;;8.70;;
13683;SDS011;6914;53.552;9.908;2022-12-20T09:23:52;8.00;;;7.07;;
13683;SDS011;6914;53.552;9.908;2022-12-20T09:26:20;11.43;;;7.93;;
13683;SDS011;6914;53.552;9.908;2022-12-20T09:28:48;9.30;;;8.50;;
13683;SDS011;6914;53.552;9.908;2022-12-20T09:31:18;11.10;;;9.33;;
13683;SDS011;6914;53.552;9.908;2022-12-20T09:33:46;12.03;;;8.10;;
13683;SDS011;6914;53.552;9.908;2022-12-20T09:36:14;10.17;;;7.97;;
13683;SDS011;6914;53.552;9.908;2022-12-20T09:38:43;8.53;;;7.57;;
13683;SDS011;6914;53.552;9.908;2022-12-20T09:41:15;12.93;;;9.00;;
13683;SDS011;6914;53.552;9.908;2022-12-20T09:43:50;20.03;;;8.73;;
13683;SDS011;6914;53.552;9.908;2022-12-20T09:46:18;15.83;;;9.47;;
13683;SDS011;6914;53.552;9.908;2022-12-20T09:48:46;13.00;;;9.20;;
13683;SDS011;6914;53.552;9.908;2022-12-20T09:51:17;11.50;;;8.43;;
13683;SDS011;6914;53.552;9.908;2022-12-20T09:53:59;11.00;;;8.90;;
13683;SDS011;6914;53.552;9.908;2022-12-20T09:56:36;9.67;;;8.70;;
13683;SDS011;6914;53.552;9.908;2022-12-20T09:59:09;13.10;;;9.27;;
13683;SDS011;6914;53.552;9.908;2022-12-20T10:01:41;9.30;;;8.40;;
13683;SDS011;6914;53.552;9.908;2022-12-20T10:04:14;14.73;;;9.07;;
13683;SDS011;6914;53.552;9.908;2022-12-20T10:06:47;12.93;;;9.10;;
13683;SDS011;6914;53.552;9.908;2022-12-20T10:09:38;11.93;;;9.63;;
13683;SDS011;6914;53.552;9.908;2022-12-20T10:12:14;11.00;;;9.50;;
13683;SDS011;6914;53.552;9.908;2022-12-20T10:15:00;9.90;;;8.93;;
13683;SDS011;6914;53.552;9.908;2022-12-20T10:17:45;9.13;;;8.20;;
13683;SDS011;6914;53.552;9.908;2022-12-20T10:20:30;13.20;;;10.03;;
13683;SDS011;6914;53.552;9.908;2022-12-20T10:23:11;13.00;;;9.50;;
13683;SDS011;6914;53.552;9.908;2022-12-20T10:25:48;13.57;;;9.23;;
13683;SDS011;6914;53.552;9.908;2022-12-20T10:28:16;12.50;;;9.20;;
13683;SDS011;6914;53.552;9.908;2022-12-20T10:30:51;11.33;;;8.93;;
13683;SDS011;6914;53.552;9.908;2022-12-20T10:33:19;15.43;;;8.60;;
13683;SDS011;6914;53.552;9.908;2022-12-20T10:35:47;12.30;;;9.03;;
13683;SDS011;6914;53.552;9.908;2022-12-20T10:38:16;8.97;;;8.07;;
13683;SDS011;6914;53.552;9.908;2022-12-20T10:40:45;9.50;;;6.93;;
13683;SDS011;6914;53.552;9.908;2022-12-20T10:43:14;10.47;;;8.17;;
13683;SDS011;6914;53.552;9.908;2022-12-20T10:45:43;10.80;;;7.63;;
13683;SDS011;6914;53.552;9.908;2022-12-20T10:51:12;8.40;;;6.97;;
13683;SDS011;6914;53.552;9.908;2022-12-20T10:53:48;9.10;;;6.60;;
13683;SDS011;6914;53.552;9.908;2022-12-20T10:56:18;14.10;;;6.43;;
13683;SDS011;6914;53.552;9.908;2022-12-20T10:58:56;6.17;;;5.73;;
13683;SDS011;6914;53.552;9.908;2022-12-20T11:01:28;7.77;;;6.73;;
13683;SDS011;6914;53.552;9.908;2022-12-20T11:04:01;6.80;;;6.07;;
13683;SDS011;6914;53.552;9.908;2022-12-20T11:06:39;6.90;;;6.20;;
13683;SDS011;6914;53.552;9.908;2022-12-20T11:09:24;10.87;;;6.00;;
13683;SDS011;6914;53.552;9.908;2022-12-20T11:11:56;11.83;;;5.97;;
13683;SDS011;6914;53.552;9.908;2022-12-20T11:14:28;12.73;;;5.43;;
13683;SDS011;6914;53.552;9.908;2022-12-20T11:16:56;7.27;;;5.50;;
13683;SDS011;6914;53.552;9.908;2022-12-20T11:19:33;9.20;;;5.93;;
13683;SDS011;6914;53.552;9.908;2022-12-20T11:22:17;9.93;;;6.30;;
13683;SDS011;6914;53.552;9.908;2022-12-20T11:24:58;9.13;;;5.57;;
13683;SDS011;6914;53.552;9.908;2022-12-20T11:27:33;5.87;;;5.43;;
13683;SDS011;6914;53.552;9.908;2022-12-20T11:30:12;8.10;;;5.33;;
13683;SDS011;6914;53.552;9.908;2022-12-20T11:32:54;7.53;;;5.10;;
13683;SDS011;6914;53.552;9.908;2022-12-20T11:35:47;6.80;;;6.20;;
13683;SDS011;6914;53.552;9.908;2022-12-20T11:38:24;8.83;;;5.30;;
13683;SDS011;6914;53.552;9.908;2022-12-20T11:41:07;8.03;;;5.43;;
13683;SDS011;6914;53.552;9.908;2022-12-20T11:43:45;6.43;;;5.90;;
13683;SDS011;6914;53.552;9.908;2022-12-20T11:46:46;8.23;;;5.50;;
13683;SDS011;6914;53.552;9.908;2022-12-20T11:49:31;6.57;;;6.03;;
13683;SDS011;6914;53.552;9.908;2022-12-20T11:52:15;6.47;;;5.90;;
13683;SDS011;6914;53.552;9.908;2022-12-20T11:54:57;13.00;;;6.70;;
13683;SDS011;6914;53.552;9.908;2022-12-20T11:57:34;5.83;;;5.47;;
13683;SDS011;6914;53.552;9.908;2022-12-20T12:00:06;11.57;;;5.80;;
13683;SDS011;6914;53.552;9.908;2022-12-20T12:02:39;7.10;;;5.70;;
13683;SDS011;6914;53.552;9.908;2022-12-20T12:05:15;6.27;;;5.73;;
13683;SDS011;6914;53.552;9.908;2022-12-20T12:07:48;6.10;;;5.60;;
13683;SDS011;6914;53.552;9.908;2022-12-20T12:10:19;6.53;;;5.90;;
13683;SDS011;6914;53.552;9.908;2022-12-20T12:12:51;7.67;;;5.80;;
13683;SDS011;6914;53.552;9.908;2022-12-20T12:15:26;9.40;;;6.30;;
13683;SDS011;6914;53.552;9.908;2022-12-20T12:17:57;10.30;;;6.10;;
13683;SDS011;6914;53.552;9.908;2022-12-20T12:20:32;11.27;;;6.10;;
13683;SDS011;6914;53.552;9.908;2022-12-20T12:23:17;8.37;;;5.30;;
13683;SDS011;6914;53.552;9.908;2022-12-20T12:25:48;13.50;;;6.40;;
13683;SDS011;6914;53.552;9.908;2022-12-20T12:28:15;7.30;;;6.50;;
13683;SDS011;6914;53.552;9.908;2022-12-20T12:30:46;5.93;;;5.33;;
13683;SDS011;6914;53.552;9.908;2022-12-20T12:33:17;11.37;;;6.30;;
13683;SDS011;6914;53.552;9.908;2022-12-20T12:35:52;6.70;;;6.03;;
13683;SDS011;6914;53.552;9.908;2022-12-20T12:38:53;15.93;;;6.63;;
13683;SDS011;6914;53.552;9.908;2022-12-20T12:41:53;11.60;;;6.07;;
13683;SDS011;6914;53.552;9.908;2022-12-20T12:44:45;12.50;;;6.40;;
13683;SDS011;6914;53.552;9.908;2022-12-20T12:47:16;8.57;;;5.97;;
13683;SDS011;6914;53.552;9.908;2022-12-20T12:49:59;9.67;;;7.20;;
13683;SDS011;6914;53.552;9.908;2022-12-20T12:52:38;8.33;;;7.03;;
13683;SDS011;6914;53.552;9.908;2022-12-20T13:01:04;8.47;;;7.43;;
13683;SDS011;6914;53.552;9.908;2022-12-20T13:03:43;13.63;;;6.50;;
13683;SDS011;6914;53.552;9.908;2022-12-20T13:09:40;9.80;;;7.40;;
13683;SDS011;6914;53.552;9.908;2022-12-20T13:18:24;10.87;;;8.17;;
13683;SDS011;6914;53.552;9.908;2022-12-20T13:27:14;9.83;;;8.03;;
13683;SDS011;6914;53.552;9.908;2022-12-20T13:29:57;14.63;;;8.67;;
13683;SDS011;6914;53.552;9.908;2022-12-20T13:32:54;11.67;;;7.63;;
13683;SDS011;6914;53.552;9.908;2022-12-20T13:35:31;10.30;;;7.90;;
13683;SDS011;6914;53.552;9.908;2022-12-20T13:41:10;9.70;;;7.40;;
13683;SDS011;6914;53.552;9.908;2022-12-20T13:43:43;8.20;;;7.40;;
13683;SDS011;6914;53.552;9.908;2022-12-20T13:46:12;13.33;;;7.80;;
13683;SDS011;6914;53.552;9.908;2022-12-20T13:48:48;8.63;;;7.20;;
13683;SDS011;6914;53.552;9.908;2022-12-20T13:54:14;9.80;;;8.87;;
13683;SDS011;6914;53.552;9.908;2022-12-20T13:56:46;8.07;;;7.37;;
13683;SDS011;6914;53.552;9.908;2022-12-20T13:59:15;10.60;;;8.67;;
13683;SDS011;6914;53.552;9.908;2022-12-20T14:01:48;12.50;;;8.53;;
13683;SDS011;6914;53.552;9.908;2022-12-20T14:04:16;9.60;;;8.60;;
13683;SDS011;6914;53.552;9.908;2022-12-20T14:06:50;13.17;;;7.90;;
13683;SDS011;6914;53.552;9.908;2022-12-20T14:09:25;13.80;;;8.87;;
13683;SDS011;6914;53.552;9.908;2022-12-20T14:12:02;9.77;;;8.77;;
13683;SDS011;6914;53.552;9.908;2022-12-20T14:17:47;16.93;;;9.13;;
13683;SDS011;6914;53.552;9.908;2022-12-20T14:20:17;11.60;;;9.13;;
13683;SDS011;6914;53.552;9.908;2022-12-20T14:22:54;13.03;;;8.30;;
13683;SDS011;6914;53.552;9.908;2022-12-20T14:25:37;14.93;;;8.40;;
13683;SDS011;6914;53.552;9.908;2022-12-20T14:28:14;10.93;;;8.10;;
13683;SDS011;6914;53.552;9.908;2022-12-20T14:30:45;9.20;;;8.27;;
13683;SDS011;6914;53.552;9.908;2022-12-20T14:33:23;8.07;;;7.33;;
13683;SDS011;6914;53.552;9.908;2022-12-20T14:35:54;16.00;;;8.23;;
13683;SDS011;6914;53.552;9.908;2022-12-20T14:38:28;8.70;;;7.30;;
13683;SDS011;6914;53.552;9.908;2022-12-20T14:40:56;16.60;;;8.27;;
13683;SDS011;6914;53.552;9.908;2022-12-20T14:43:25;13.73;;;8.73;;
13683;SDS011;6914;53.552;9.908;2022-12-20T14:46:14;10.20;;;7.40;;
13683;SDS011;6914;53.552;9.908;2022-12-20T14:48:45;9.83;;;7.53;;
13683;SDS011;6914;53.552;9.908;2022-12-20T14:51:12;11.63;;;9.57;;
13683;SDS011;6914;53.552;9.908;2022-12-20T14:53:45;13.03;;;8.83;;
13683;SDS011;6914;53.552;9.908;2022-12-20T14:56:16;16.00;;;8.33;;
13683;SDS011;6914;53.552;9.908;2022-12-20T14:58:47;15.87;;;9.03;;
13683;SDS011;6914;53.552;9.908;2022-12-20T15:01:36;17.30;;;8.40;;
13683;SDS011;6914;53.552;9.908;2022-12-20T15:04:17;17.70;;;9.00;;
13683;SDS011;6914;53.552;9.908;2022-12-20T15:06:50;12.30;;;8.77;;
13683;SDS011;6914;53.552;9.908;2022-12-20T15:09:19;12.90;;;8.97;;
13683;SDS011;6914;53.552;9.908;2022-12-20T15:11:50;10.57;;;8.57;;
13683;SDS011;6914;53.552;9.908;2022-12-20T15:14:30;14.20;;;9.63;;
13683;SDS011;6914;53.552;9.908;2022-12-20T15:17:05;10.40;;;9.10;;
13683;SDS011;6914;53.552;9.908;2022-12-20T15:19:36;12.70;;;9.77;;
13683;SDS011;6914;53.552;9.908;2022-12-20T15:22:03;11.37;;;8.60;;
13683;SDS011;6914;53.552;9.908;2022-12-20T15:24:31;10.97;;;9.27;;
13683;SDS011;6914;53.552;9.908;2022-12-20T15:26:58;15.30;;;10.07;;
13683;SDS011;6914;53.552;9.908;2022-12-20T15:29:28;9.80;;;8.90;;
13683;SDS011;6914;53.552;9.908;2022-12-20T15:31:57;20.07;;;10.30;;
13683;SDS011;6914;53.552;9.908;2022-12-20T15:34:32;14.33;;;10.50;;
13683;SDS011;6914;53.552;9.908;2022-12-20T15:37:00;11.73;;;9.70;;
13683;SDS011;6914;53.552;9.908;2022-12-20T15:39:29;10.23;;;9.23;;
13683;SDS011;6914;53.552;9.908;2022-12-20T15:42:03;9.10;;;8.40;;
13683;SDS011;6914;53.552;9.908;2022-12-20T15:44:38;12.47;;;9.80;;
13683;SDS011;6914;53.552;9.908;2022-12-20T15:47:08;10.50;;;9.40;;
13683;SDS011;6914;53.552;9.908;2022-12-20T15:49:37;15.93;;;9.70;;
13683;SDS011;6914;53.552;9.908;2022-12-20T15:52:04;10.23;;;9.20;;